Time;durP1;ratioP1;P1;durP2;ratioP2;P2;SDS_P1;SDS_P2;PMS_P1;PMS_P2;Temp;Humidity;BMP_temperature;BMP_pressure;BME280_temperature;BME280_humidity;BME280_pressure;Samples;Min_cycle;Max_cycle;Signal;HPM_P1;HPM_P2
2021/12/08 00:01:07;;;;;;;15.60;7.95;;;;;;;4.48;100.00;99137.25;5034981;28;20021;-78
2021/12/08 00:03:33;;;;;;;17.55;9.43;;;;;;;4.49;100.00;99141.63;5033902;28;20063;-78
2021/12/08 00:06:01;;;;;;;17.42;8.98;;;;;;;4.51;100.00;99142.50;5035007;28;20435;-78
2021/12/08 00:08:29;;;;;;;19.98;10.32;;;;;;;4.55;100.00;99138.22;5032779;28;20033;-77
2021/12/08 00:13:24;;;;;;;18.25;10.02;;;;;;;4.59;100.00;99132.19;5035867;28;20048;-77
2021/12/08 00:15:58;;;;;;;23.38;10.63;;;;;;;4.62;100.00;99140.03;5038784;28;20481;-77
2021/12/08 00:18:32;;;;;;;19.90;11.30;;;;;;;4.67;100.00;99133.16;5035236;28;20036;-78
2021/12/08 00:21:00;;;;;;;16.77;9.40;;;;;;;4.69;100.00;99126.25;5035942;28;20021;-77
2021/12/08 00:23:27;;;;;;;19.95;9.93;;;;;;;4.76;100.00;99121.09;5034299;28;20029;-77
2021/12/08 00:25:54;;;;;;;18.58;9.32;;;;;;;4.83;100.00;99113.38;5033616;28;20390;-77
2021/12/08 00:28:20;;;;;;;16.05;9.25;;;;;;;4.86;100.00;99112.53;5032087;28;20053;-77
2021/12/08 00:30:49;;;;;;;14.93;8.75;;;;;;;4.87;100.00;99120.38;5039069;28;20469;-77
2021/12/08 00:33:16;;;;;;;13.05;7.32;;;;;;;4.93;100.00;99113.50;5034820;28;20033;-77
2021/12/08 00:35:47;;;;;;;13.88;7.80;;;;;;;4.97;100.00;99116.13;5031759;28;20033;-77
2021/12/08 00:38:13;;;;;;;11.85;7.75;;;;;;;5.01;100.00;99125.72;5033272;28;20470;-77
2021/12/08 00:40:40;;;;;;;12.68;6.85;;;;;;;5.01;100.00;99125.72;5036900;28;20374;-77
2021/12/08 00:43:06;;;;;;;12.93;7.78;;;;;;;5.02;100.00;99124.88;5045160;28;20462;-77
2021/12/08 00:45:33;;;;;;;12.40;7.43;;;;;;;5.04;100.00;99115.34;5033212;28;20485;-76
2021/12/08 00:48:00;;;;;;;12.18;7.40;;;;;;;5.07;100.00;99111.88;5034266;28;20063;-77
2021/12/08 00:50:30;;;;;;;11.23;7.60;;;;;;;5.13;100.00;99111.06;5037309;28;20036;-77
2021/12/08 00:52:57;;;;;;;15.10;7.10;;;;;;;5.13;100.00;99131.94;5032930;28;20033;-77
2021/12/08 00:55:24;;;;;;;16.23;7.10;;;;;;;5.18;100.00;99135.47;5037839;28;20022;-77
2021/12/08 00:57:50;;;;;;;16.42;6.68;;;;;;;5.20;100.00;99133.75;5033551;28;20030;-76
2021/12/08 01:00:23;;;;;;;10.88;6.05;;;;;;;5.24;100.00;99131.19;5034724;28;20052;-77
2021/12/08 01:02:49;;;;;;;17.05;6.53;;;;;;;5.23;100.00;99145.09;5032545;28;20029;-77
2021/12/08 01:05:18;;;;;;;20.08;7.32;;;;;;;5.25;100.00;99147.72;5033236;28;20400;-77
2021/12/08 01:07:45;;;;;;;14.02;6.47;;;;;;;5.29;100.00;99149.50;5031205;28;20090;-77
2021/12/08 01:10:15;;;;;;;11.90;5.53;;;;;;;5.34;100.00;99153.03;5036706;28;20032;-76
2021/12/08 01:12:41;;;;;;;16.70;6.20;;;;;;;5.35;100.00;99148.69;5034868;28;20085;-77
2021/12/08 01:15:08;;;;;;;11.25;5.63;;;;;;;5.39;100.00;99155.69;5030868;28;20096;-77
2021/12/08 01:17:34;;;;;;;8.32;4.72;;;;;;;5.40;100.00;99153.09;5033103;28;20026;-77
2021/12/08 01:20:07;;;;;;;14.02;5.45;;;;;;;5.38;100.00;99173.06;5033288;28;20375;-76
2021/12/08 01:22:34;;;;;;;11.23;5.28;;;;;;;5.39;100.00;99176.56;5028772;28;20091;-77
2021/12/08 01:24:59;;;;;;;8.48;5.65;;;;;;;5.38;100.00;99170.44;5031291;28;20485;-77
2021/12/08 01:27:24;;;;;;;15.85;5.25;;;;;;;5.39;100.00;99187.84;5040530;28;20080;-77
2021/12/08 01:29:50;;;;;;;11.35;4.82;;;;;;;5.39;100.00;99187.00;5036506;28;20044;-77
2021/12/08 01:32:15;;;;;;;12.65;5.93;;;;;;;5.43;100.00;99190.53;5030972;28;20037;-77
2021/12/08 01:34:41;;;;;;;11.25;5.93;;;;;;;5.43;100.00;99188.78;5031062;28;20029;-76
2021/12/08 01:37:06;;;;;;;11.02;5.55;;;;;;;5.47;100.00;99195.78;5031194;28;20025;-77
2021/12/08 01:39:32;;;;;;;17.27;7.28;;;;;;;5.50;100.00;99185.34;5035603;28;20111;-77
2021/12/08 01:41:57;;;;;;;11.55;6.28;;;;;;;5.49;100.00;99188.81;5029592;28;20097;-77
2021/12/08 01:47:07;;;;;;;12.57;5.78;;;;;;;5.49;100.00;99182.75;5033172;28;20048;-77
2021/12/08 01:49:33;;;;;;;13.07;6.00;;;;;;;5.50;100.00;99189.72;5032473;28;20041;-77
2021/12/08 01:51:58;;;;;;;15.52;5.88;;;;;;;5.49;100.00;99193.19;5031597;28;20057;-77
2021/12/08 01:54:24;;;;;;;13.98;5.25;;;;;;;5.53;100.00;99200.16;5030701;28;20029;-77
2021/12/08 01:56:50;;;;;;;14.32;6.13;;;;;;;5.52;100.00;99214.97;5030720;28;20499;-78
2021/12/08 01:59:19;;;;;;;8.82;4.90;;;;;;;5.46;100.00;99208.81;5037107;28;20385;-80
2021/12/08 02:01:46;;;;;;;15.02;5.10;;;;;;;5.40;100.00;99207.88;5027472;28;20027;-80
2021/12/08 02:04:12;;;;;;;15.02;6.13;;;;;;;5.37;100.00;99215.69;5034174;28;20039;-80
2021/12/08 02:06:42;;;;;;;13.82;6.75;;;;;;;5.31;100.00;99205.16;5032195;28;20460;-79
2021/12/08 02:09:11;;;;;;;23.20;7.05;;;;;;;5.31;100.00;99212.97;5033558;28;20052;-78
2021/12/08 02:11:38;;;;;;;22.13;7.20;;;;;;;5.27;100.00;99205.97;5031153;28;20029;-78
2021/12/08 02:14:04;;;;;;;20.52;7.03;;;;;;;5.28;100.00;99207.75;5032288;28;20032;-78
2021/12/08 02:16:31;;;;;;;16.92;6.95;;;;;;;5.29;100.00;99209.50;5031686;28;20025;-78
2021/12/08 02:18:58;;;;;;;13.32;5.90;;;;;;;5.34;100.00;99217.34;5031830;28;20038;-77
2021/12/08 02:21:27;;;;;;;13.93;6.30;;;;;;;5.33;100.00;99216.50;5036576;28;20116;-77
2021/12/08 02:23:55;;;;;;;11.55;6.10;;;;;;;5.36;100.00;99223.47;5029045;28;20017;-77
2021/12/08 02:26:22;;;;;;;11.85;5.40;;;;;;;5.37;100.00;99220.88;5037023;28;20148;-79
2021/12/08 02:28:48;;;;;;;21.92;5.45;;;;;;;5.39;100.00;99223.50;5040320;28;20053;-77
2021/12/08 02:31:20;;;;;;;9.52;4.70;;;;;;;5.41;100.00;99227.00;5031493;28;20034;-77
2021/12/08 02:47:52;;;;;;;14.23;5.78;;;;;;;5.44;100.00;99208.78;5035970;28;20099;-77
2021/12/08 02:50:22;;;;;;;15.68;5.95;;;;;;;5.46;100.00;99208.81;5034473;28;20025;-76
2021/12/08 02:52:48;;;;;;;13.75;6.10;;;;;;;5.45;100.00;99218.34;5038050;28;20032;-77
2021/12/08 02:55:15;;;;;;;18.73;6.45;;;;;;;5.46;100.00;99219.25;5040030;28;20115;-77
2021/12/08 02:57:40;;;;;;;15.73;6.82;;;;;;;5.45;100.00;99222.69;5032197;28;20029;-77
2021/12/08 03:00:14;;;;;;;19.42;6.15;;;;;;;5.46;100.00;99230.53;5034903;28;20034;-77
2021/12/08 03:02:39;;;;;;;18.98;6.03;;;;;;;5.46;100.00;99214.88;5038658;28;20485;-77
2021/12/08 03:05:05;;;;;;;13.57;5.22;;;;;;;5.44;100.00;99221.84;5032213;28;20024;-77
2021/12/08 03:07:31;;;;;;;23.38;6.55;;;;;;;5.44;100.00;99231.38;5035182;28;20037;-78
2021/12/08 03:10:13;;;;;;;14.48;4.07;;;;;;;5.42;100.00;99222.66;5041916;28;20029;-78
2021/12/08 03:12:38;;;;;;;4.47;2.30;;;;;;;5.45;100.00;99222.69;5038811;28;20033;-77
2021/12/08 03:15:04;;;;;;;3.30;1.80;;;;;;;5.47;100.00;99232.28;5034292;28;20026;-77
2021/12/08 03:17:33;;;;;;;10.57;2.42;;;;;;;5.46;100.00;99221.84;5035299;28;20068;-77
2021/12/08 03:19:58;;;;;;;5.97;1.83;;;;;;;5.45;100.00;99214.88;5034694;28;20033;-77
2021/12/08 03:22:24;;;;;;;9.02;1.83;;;;;;;5.43;100.00;99216.59;5035754;28;20111;-77
2021/12/08 03:24:52;;;;;;;8.27;1.77;;;;;;;5.41;100.00;99232.22;5038959;28;20053;-77
2021/12/08 03:27:22;;;;;;;6.05;1.65;;;;;;;5.39;100.00;99236.56;5036018;28;20045;-77
2021/12/08 03:29:55;;;;;;;5.88;1.75;;;;;;;5.34;100.00;99214.75;5036387;28;20017;-77
2021/12/08 03:32:33;;;;;;;7.60;2.08;;;;;;;5.35;100.00;99226.94;5019804;28;20032;-77
2021/12/08 03:34:58;;;;;;;7.22;1.73;;;;;;;5.32;100.00;99226.91;5035714;28;20017;-77
2021/12/08 03:37:28;;;;;;;11.32;1.95;;;;;;;5.24;100.00;99225.06;5017540;28;20033;-78
2021/12/08 03:39:56;;;;;;;5.85;1.75;;;;;;;5.21;100.00;99225.03;5041952;28;20374;-77
2021/12/08 03:42:24;;;;;;;14.13;2.88;;;;;;;5.18;100.00;99235.44;5034692;28;20720;-76
2021/12/08 03:44:50;;;;;;;3.88;1.63;;;;;;;5.16;100.00;99241.50;5036815;28;20079;-77
2021/12/08 03:47:24;;;;;;;3.92;1.83;;;;;;;5.12;100.00;99239.72;5040634;28;20056;-77
2021/12/08 03:49:50;;;;;;;9.20;1.90;;;;;;;5.10;100.00;99241.41;5036152;28;20366;-77
2021/12/08 03:52:15;;;;;;;10.88;2.17;;;;;;;5.05;100.00;99250.03;5034891;28;20083;-77
2021/12/08 03:54:41;;;;;;;10.30;2.25;;;;;;;5.00;100.00;99250.84;5037931;28;20105;-76
2021/12/08 03:57:11;;;;;;;7.60;2.00;;;;;;;4.99;100.00;99275.16;5040555;28;20039;-77
2021/12/08 03:59:37;;;;;;;8.38;3.10;;;;;;;5.00;100.00;99264.75;5034864;28;20026;-77
2021/12/08 04:02:04;;;;;;;5.13;1.75;;;;;;;5.02;100.00;99254.38;5033427;28;20033;-76
2021/12/08 04:04:30;;;;;;;4.13;2.22;;;;;;;5.02;100.00;99259.56;5032575;28;20026;-76
2021/12/08 04:07:01;;;;;;;10.23;2.08;;;;;;;5.04;100.00;99263.94;5035286;28;20041;-77
2021/12/08 04:11:54;;;;;;;3.65;1.73;;;;;;;5.08;100.00;99270.06;5039208;28;20043;-77
2021/12/08 04:14:23;;;;;;;7.55;2.25;;;;;;;5.05;100.00;99260.47;5043319;28;20033;-77
2021/12/08 04:16:55;;;;;;;4.78;1.77;;;;;;;5.02;100.00;99244.78;5034012;28;20072;-77
2021/12/08 04:19:22;;;;;;;14.20;2.25;;;;;;;5.00;100.00;99241.28;5035710;28;20089;-77
2021/12/08 04:21:52;;;;;;;8.77;2.08;;;;;;;4.94;100.00;99241.22;5032086;28;20037;-77
2021/12/08 04:24:17;;;;;;;5.43;1.85;;;;;;;4.92;100.00;99252.47;5031879;28;20036;-77
2021/12/08 04:26:50;;;;;;;8.15;1.90;;;;;;;4.90;100.00;99260.28;5035082;28;20391;-77
2021/12/08 04:29:20;;;;;;;8.57;2.33;;;;;;;4.86;100.00;99279.34;5034697;28;20049;-77
2021/12/08 04:31:48;;;;;;;8.10;2.08;;;;;;;4.83;100.00;99263.63;5037457;28;20499;-77
2021/12/08 04:34:23;;;;;;;7.82;2.30;;;;;;;4.84;100.00;99276.72;5032548;28;20485;-77
2021/12/08 04:36:52;;;;;;;14.45;3.10;;;;;;;4.88;100.00;99293.25;5024591;28;20490;-77
2021/12/08 04:39:29;;;;;;;10.75;2.50;;;;;;;4.92;100.00;99283.75;5031523;28;20022;-77
2021/12/08 04:42:02;;;;;;;20.10;2.90;;;;;;;4.89;100.00;99300.22;5032282;28;20481;-77
2021/12/08 04:44:36;;;;;;;12.95;3.10;;;;;;;4.92;100.00;99300.25;5035397;28;20026;-77
2021/12/08 04:47:22;;;;;;;15.88;4.05;;;;;;;4.91;100.00;99293.31;5033765;28;20029;-77
2021/12/08 05:01:25;;;;;;;14.10;3.50;;;;;;;4.71;100.00;99279.97;5036104;28;20331;-77
2021/12/08 05:04:12;;;;;;;16.20;3.42;;;;;;;4.70;100.00;99288.66;5036590;28;20025;-77
2021/12/08 05:06:59;;;;;;;13.75;3.80;;;;;;;4.65;100.00;99285.09;5033102;28;20036;-77
2021/12/08 05:09:30;;;;;;;22.10;2.75;;;;;;;4.63;100.00;99287.69;5034003;28;20052;-77
2021/12/08 05:12:01;;;;;;;9.75;2.42;;;;;;;4.62;100.00;99290.25;5032177;28;20033;-78
2021/12/08 05:14:32;;;;;;;13.40;2.78;;;;;;;4.57;100.00;99300.59;5037847;28;20159;-77
2021/12/08 05:17:03;;;;;;;9.77;2.88;;;;;;;4.54;100.00;99292.75;5026471;28;20025;-77
2021/12/08 05:19:31;;;;;;;10.73;2.50;;;;;;;4.57;100.00;99298.00;5034393;28;20029;-77
2021/12/08 05:22:06;;;;;;;11.27;2.63;;;;;;;4.54;100.00;99293.63;5032793;28;20029;-77
2021/12/08 05:24:39;;;;;;;10.75;2.70;;;;;;;4.51;100.00;99287.50;5030887;28;20370;-77
2021/12/08 05:27:07;;;;;;;17.23;2.60;;;;;;;4.49;100.00;99289.19;5033211;28;20041;-77
2021/12/08 05:29:35;;;;;;;12.43;2.22;;;;;;;4.50;100.00;99296.16;5031821;28;20025;-78
2021/12/08 05:32:02;;;;;;;12.18;2.35;;;;;;;4.49;100.00;99299.59;5032801;28;20378;-77
2021/12/08 05:34:28;;;;;;;5.47;2.05;;;;;;;4.47;100.00;99301.31;5034644;28;20026;-77
2021/12/08 05:36:55;;;;;;;12.77;2.35;;;;;;;4.49;100.00;99305.69;5033285;28;20091;-77
2021/12/08 05:39:25;;;;;;;10.00;2.17;;;;;;;4.49;100.00;99321.34;5039001;28;20056;-78
2021/12/08 05:41:57;;;;;;;10.70;2.17;;;;;;;4.54;100.00;99313.56;5035770;28;20041;-78
2021/12/08 05:44:23;;;;;;;15.65;2.47;;;;;;;4.50;100.00;99333.50;5031186;28;20564;-78
2021/12/08 05:46:55;;;;;;;9.68;3.17;;;;;;;4.48;100.00;99334.34;5033707;28;20037;-77
2021/12/08 05:49:22;;;;;;;12.00;2.58;;;;;;;4.50;100.00;99335.22;5033609;28;20060;-78
2021/12/08 05:51:49;;;;;;;7.70;1.70;;;;;;;4.45;100.00;99334.25;5029708;28;20449;-77
2021/12/08 05:54:24;;;;;;;7.53;1.55;;;;;;;4.47;100.00;99337.78;5039107;28;20112;-77
2021/12/08 05:56:54;;;;;;;11.07;2.10;;;;;;;4.46;100.00;99336.03;5033689;28;20040;-77
2021/12/08 05:59:22;;;;;;;13.85;2.28;;;;;;;4.47;100.00;99337.78;5034508;28;20497;-77
2021/12/08 06:02:01;;;;;;;10.13;2.38;;;;;;;4.46;100.00;99351.66;5035225;28;20029;-77
2021/12/08 06:04:29;;;;;;;8.95;2.08;;;;;;;4.47;100.00;99343.84;5036194;28;20021;-77
2021/12/08 06:06:56;;;;;;;10.38;1.80;;;;;;;4.46;100.00;99362.94;5036388;28;20370;-77
2021/12/08 06:09:24;;;;;;;11.98;1.70;;;;;;;4.44;100.00;99348.16;5033962;28;20160;-77
2021/12/08 06:11:50;;;;;;;13.05;1.92;;;;;;;4.41;100.00;99345.47;5036487;28;20033;-78
2021/12/08 06:14:19;;;;;;;18.13;2.78;;;;;;;4.44;100.00;99358.56;5035779;28;20029;-77
2021/12/08 06:16:46;;;;;;;10.45;2.95;;;;;;;4.43;100.00;99365.50;5033623;28;20061;-79
2021/12/08 06:19:14;;;;;;;12.30;2.20;;;;;;;4.38;100.00;99370.63;5036059;28;20030;-78
2021/12/08 06:21:40;;;;;;;6.68;1.33;;;;;;;4.43;100.00;99388.06;5039654;28;20032;-78
2021/12/08 06:24:10;;;;;;;10.50;1.90;;;;;;;4.45;100.00;99383.75;5034451;28;20060;-77
2021/12/08 06:26:37;;;;;;;7.28;2.10;;;;;;;4.42;100.00;99375.88;5031085;28;20041;-78
2021/12/08 06:29:07;;;;;;;8.20;1.92;;;;;;;4.36;100.00;99392.28;5034544;28;20080;-78
2021/12/08 06:31:34;;;;;;;8.73;1.85;;;;;;;4.37;100.00;99400.13;5034882;28;20033;-78
2021/12/08 06:34:00;;;;;;;12.50;2.78;;;;;;;4.41;100.00;99405.38;5036347;28;20041;-77
2021/12/08 06:36:30;;;;;;;7.95;1.98;;;;;;;4.41;100.00;99397.56;5035762;28;20025;-76
2021/12/08 06:38:59;;;;;;;8.60;1.77;;;;;;;4.41;100.00;99400.16;5033737;28;20032;-76
2021/12/08 06:41:33;;;;;;;13.20;2.22;;;;;;;4.36;100.00;99385.34;5030753;28;20034;-76
2021/12/08 06:44:06;;;;;;;12.38;2.53;;;;;;;4.34;100.00;99386.16;5035690;28;20104;-76
2021/12/08 06:46:32;;;;;;;11.85;2.05;;;;;;;4.42;99.45;99392.38;5031429;28;20033;-75
2021/12/08 06:48:59;;;;;;;5.82;1.98;;;;;;;4.42;99.79;99391.50;5033221;28;20354;-75
2021/12/08 06:51:30;;;;;;;20.27;2.70;;;;;;;4.44;99.82;99390.69;5032525;28;20026;-75
2021/12/08 06:54:05;;;;;;;9.48;2.42;;;;;;;4.41;99.93;99389.75;5031666;28;20066;-75
2021/12/08 06:56:38;;;;;;;12.63;2.17;;;;;;;4.36;100.00;99397.50;5032704;28;20040;-75
2021/12/08 06:59:09;;;;;;;12.60;2.67;;;;;;;4.38;99.87;99394.06;5033719;28;20109;-75
2021/12/08 07:02:47;;;;;;;8.38;2.30;;;;;;;4.44;99.59;99405.47;5033538;28;20037;-76
2021/12/08 07:04:51;;;;;;;12.07;2.22;;;;;;;4.43;99.17;99398.47;5032432;28;20061;-76
2021/12/08 07:07:19;;;;;;;9.27;2.25;;;;;;;4.44;100.00;99403.72;5039715;28;20547;-78
2021/12/08 07:09:56;;;;;;;9.57;2.33;;;;;;;4.40;99.55;99407.13;5034517;28;20371;-77
2021/12/08 07:12:29;;;;;;;7.93;1.67;;;;;;;4.38;99.53;99417.50;5036287;28;20452;-78
2021/12/08 07:15:10;;;;;;;13.43;2.50;;;;;;;4.35;99.42;99407.03;5031217;28;20041;-78
2021/12/08 07:17:40;;;;;;;15.95;2.35;;;;;;;4.34;99.91;99404.38;5028486;28;20022;-77
2021/12/08 07:20:52;;;;;;;11.48;3.13;;;;;;;4.28;99.78;99419.91;5032128;28;20033;-77
2021/12/08 07:23:00;;;;;;;7.68;2.05;;;;;;;4.28;100.00;99420.78;5030524;28;20061;-78
2021/12/08 07:25:29;;;;;;;15.50;2.28;;;;;;;4.27;100.00;99428.56;5033490;28;20048;-78
2021/12/08 07:27:55;;;;;;;16.50;2.92;;;;;;;4.27;100.00;99428.56;5034466;28;20049;-78
2021/12/08 07:30:25;;;;;;;11.93;2.67;;;;;;;4.26;100.00;99419.88;5034873;28;20373;-79
2021/12/08 07:32:52;;;;;;;15.68;2.75;;;;;;;4.32;100.00;99430.41;5035666;28;20397;-78
2021/12/08 07:35:26;;;;;;;13.82;2.33;;;;;;;4.31;100.00;99426.03;5033256;28;20042;-79
2021/12/08 07:37:52;;;;;;;10.93;2.30;;;;;;;4.29;100.00;99426.88;5034730;28;20381;-79
2021/12/08 07:40:43;;;;;;;11.13;2.25;;;;;;;4.28;100.00;99436.41;5034964;28;20037;-79
2021/12/08 07:43:15;;;;;;;13.23;2.45;;;;;;;4.33;100.00;99441.72;5033847;28;20128;-78
2021/12/08 07:45:47;;;;;;;10.48;1.90;;;;;;;4.38;99.92;99433.13;5033983;28;20021;-75
2021/12/08 07:48:25;;;;;;;13.63;2.42;;;;;;;4.34;99.71;99446.94;5035273;28;20037;-76
2021/12/08 07:51:01;;;;;;;8.90;2.95;;;;;;;4.33;100.00;99439.97;5036361;28;20791;-76
2021/12/08 07:53:28;;;;;;;8.93;2.50;;;;;;;4.33;99.76;99434.78;5039403;28;20389;-76
2021/12/08 07:56:02;;;;;;;11.77;2.53;;;;;;;4.32;100.00;99438.22;5034126;28;20032;-76
2021/12/08 07:58:27;;;;;;;8.07;2.67;;;;;;;4.30;99.95;99439.94;5034242;28;20083;-76
2021/12/08 08:01:06;;;;;;;14.10;2.60;;;;;;;4.29;100.00;99438.16;5035228;28;20049;-76
2021/12/08 08:03:33;;;;;;;10.07;2.13;;;;;;;4.26;100.00;99438.13;5030396;28;20473;-75
2021/12/08 08:06:04;;;;;;;9.18;2.20;;;;;;;4.25;100.00;99441.56;5032358;28;20024;-76
2021/12/08 08:08:33;;;;;;;13.13;3.00;;;;;;;4.26;100.00;99437.22;5031588;28;20036;-76
2021/12/08 08:11:07;;;;;;;14.77;3.45;;;;;;;4.25;99.77;99451.97;5029245;28;20485;-75
2021/12/08 08:13:34;;;;;;;16.92;2.92;;;;;;;4.27;100.00;99439.84;5037844;28;20048;-76
2021/12/08 08:16:05;;;;;;;10.68;2.70;;;;;;;4.33;99.85;99439.97;5040318;28;20032;-76
2021/12/08 08:18:34;;;;;;;11.27;2.72;;;;;;;4.33;99.98;99439.13;5053282;28;20033;-76
2021/12/08 08:21:05;;;;;;;16.17;3.60;;;;;;;4.41;100.00;99452.25;5033133;28;20022;-76
2021/12/08 08:23:31;;;;;;;13.82;2.92;;;;;;;4.47;99.05;99455.00;5035607;28;20469;-76
2021/12/08 08:25:59;;;;;;;12.05;3.33;;;;;;;4.51;98.96;99451.59;5031174;28;20022;-76
2021/12/08 08:28:24;;;;;;;12.98;3.25;;;;;;;4.57;99.41;99469.91;5026126;28;20057;-76
2021/12/08 08:30:55;;;;;;;13.45;2.17;;;;;;;4.63;99.03;99456.16;5027822;28;20037;-77
2021/12/08 08:33:27;;;;;;;14.70;3.53;;;;;;;4.62;98.90;99457.88;5033300;28;20060;-76
2021/12/08 08:35:56;;;;;;;9.45;2.22;;;;;;;4.61;98.58;99458.72;5032474;28;20035;-76
2021/12/08 08:38:28;;;;;;;10.18;2.10;;;;;;;4.66;98.76;99459.66;5028442;28;20021;-76
2021/12/08 08:41:01;;;;;;;9.13;2.15;;;;;;;4.67;98.14;99451.00;5045974;28;20040;-75
2021/12/08 08:43:27;;;;;;;9.83;2.07;;;;;;;4.72;98.00;99454.59;5031943;28;20041;-76
2021/12/08 08:46:01;;;;;;;13.23;2.55;;;;;;;4.74;98.48;99452.00;5034332;28;20032;-76
2021/12/08 08:48:29;;;;;;;;;;;;;;;4.83;98.24;99452.16;5028108;28;20033;-76
2021/12/08 08:50:59;;;;;;;9.85;2.22;;;;;;;4.92;97.85;99448.81;5043205;28;19971;-76
2021/12/08 08:53:31;;;;;;;12.70;3.15;;;;;;;5.02;97.94;99463.78;5033115;28;20520;-76
2021/12/08 08:56:07;;;;;;;22.95;2.67;;;;;;;5.07;97.21;99469.06;5036630;28;20025;-76
2021/12/08 08:58:35;;;;;;;6.50;1.70;;;;;;;5.05;97.24;99468.16;5034898;28;20098;-76
2021/12/08 09:01:16;;;;;;;12.73;1.75;;;;;;;5.09;96.66;99474.28;5032145;28;20386;-76
2021/12/08 09:03:49;;;;;;;16.95;2.78;;;;;;;5.12;97.19;99470.03;5032654;28;20025;-75
2021/12/08 09:06:20;;;;;;;12.10;2.65;;;;;;;5.14;96.63;99483.06;5034408;28;20489;-76
2021/12/08 09:08:47;;;;;;;15.43;2.83;;;;;;;5.11;96.26;99485.63;5028888;28;20053;-75
2021/12/08 09:11:29;;;;;;;12.85;2.60;;;;;;;5.07;96.76;99488.22;5021720;28;20068;-76
2021/12/08 09:14:00;;;;;;;8.88;1.95;;;;;;;5.07;96.16;99489.91;5025706;28;20029;-75
2021/12/08 09:16:33;;;;;;;6.63;1.98;;;;;;;5.03;95.63;99475.97;5033995;28;20044;-76
2021/12/08 09:19:05;;;;;;;10.20;2.25;;;;;;;5.11;96.06;99478.69;5033655;28;20492;-76
2021/12/08 09:22:06;;;;;;;5.43;1.80;;;;;;;5.12;95.45;99472.63;5031485;28;20033;-76
2021/12/08 09:24:46;;;;;;;16.17;2.42;;;;;;;5.18;95.79;99470.13;5036262;28;20509;-76
2021/12/08 09:27:17;;;;;;;7.88;2.40;;;;;;;5.23;94.33;99475.41;5046072;28;20057;-76
2021/12/08 09:29:57;;;;;;;9.02;2.20;;;;;;;5.19;95.71;99486.66;5037719;28;20430;-78
2021/12/08 09:32:36;;;;;;;9.02;2.30;;;;;;;5.20;96.10;99485.78;5037106;28;20501;-76
2021/12/08 09:35:43;;;;;;;7.97;2.40;;;;;;;5.23;95.47;99493.66;5033765;28;20025;-77
2021/12/08 09:38:30;;;;;;;5.72;2.00;;;;;;;5.23;95.23;99506.69;5015611;28;20625;-76
2021/12/08 09:41:06;;;;;;;6.18;2.08;;;;;;;5.24;95.68;99514.53;5036018;28;20099;-77
2021/12/08 09:43:50;;;;;;;10.20;2.40;;;;;;;5.21;95.03;99508.41;5025101;28;20050;-77
2021/12/08 09:46:20;;;;;;;8.55;2.78;;;;;;;5.20;94.79;99524.91;5041513;28;20030;-76
2021/12/08 09:48:47;;;;;;;11.32;2.30;;;;;;;5.17;93.86;99504.00;5044490;28;20036;-76
2021/12/08 09:51:21;;;;;;;11.93;2.53;;;;;;;5.12;94.82;99510.88;5037908;28;20029;-76
2021/12/08 09:53:47;;;;;;;;;;;;;;;5.10;94.85;99526.50;5034118;28;20041;-76
2021/12/08 09:56:13;;;;;;;7.88;2.55;;;;;;;5.08;94.41;99520.34;5034876;28;20369;-76
2021/12/08 09:58:40;;;;;;;6.35;2.72;;;;;;;5.10;94.74;99523.88;5018640;28;20462;-77
2021/12/08 10:01:12;;;;;;;9.77;2.83;;;;;;;5.10;94.21;99530.81;5031643;28;20025;-76
2021/12/08 10:03:38;;;;;;;9.63;2.42;;;;;;;5.04;94.90;99555.91;5033236;28;20082;-76
2021/12/08 10:06:03;;;;;;;3.65;1.88;;;;;;;5.02;95.17;99562.84;5040378;28;20021;-77
2021/12/08 10:08:29;;;;;;;9.63;3.15;;;;;;;5.07;94.48;99535.13;5042828;28;20049;-77
2021/12/08 10:10:56;;;;;;;8.20;2.80;;;;;;;5.10;94.77;99560.38;5037588;28;20033;-78
2021/12/08 10:13:22;;;;;;;5.65;2.72;;;;;;;5.10;94.47;99549.06;5038212;28;20033;-79
2021/12/08 10:15:48;;;;;;;15.07;4.55;;;;;;;5.14;95.18;99551.78;5033699;28;20029;-77
2021/12/08 10:18:15;;;;;;;7.80;2.78;;;;;;;5.16;94.36;99554.41;5035081;28;20444;-77
2021/12/08 10:20:51;;;;;;;8.93;3.67;;;;;;;5.17;93.06;99545.72;5014144;28;20049;-77
2021/12/08 10:23:24;;;;;;;6.30;3.50;;;;;;;5.21;93.47;99547.53;5016806;28;20037;-78
2021/12/08 10:26:12;;;;;;;12.30;3.73;;;;;;;5.28;94.06;99543.31;5036439;28;20017;-78
2021/12/08 10:28:54;;;;;;;13.70;4.75;;;;;;;5.35;93.79;99540.81;5033213;28;20326;-79
2021/12/08 10:31:30;;;;;;;11.32;3.60;;;;;;;5.39;92.18;99542.59;5038483;28;20124;-78
2021/12/08 10:39:33;;;;;;;7.60;3.55;;;;;;;5.39;91.57;99547.81;5034307;28;20042;-77
2021/12/08 10:42:09;;;;;;;11.20;3.88;;;;;;;5.46;91.71;99553.16;5025656;28;20060;-76
2021/12/08 10:45:24;;;;;;;9.10;3.60;;;;;;;5.51;92.44;99541.06;5042411;28;20068;-77
2021/12/08 10:47:55;;;;;;;6.07;3.20;;;;;;;5.90;89.97;99534.66;5053096;28;20476;-77
2021/12/08 10:56:13;;;;;;;7.40;3.03;;;;;;;6.00;89.04;99539.22;5049771;28;20098;-78
2021/12/08 10:58:43;;;;;;;8.25;2.78;;;;;;;6.15;88.82;99548.13;5044977;28;20489;-77
2021/12/08 11:01:19;;;;;;;6.00;2.97;;;;;;;6.22;88.99;99534.28;5036292;28;20030;-78
2021/12/08 11:03:48;;;;;;;11.20;3.72;;;;;;;6.32;87.62;99528.34;5039517;28;20074;-78
2021/12/08 11:06:16;;;;;;;10.05;3.00;;;;;;;6.37;87.74;99534.47;5046197;28;20079;-77
2021/12/08 11:08:47;;;;;;;11.45;4.13;;;;;;;6.31;88.00;99528.28;5039208;28;20017;-77
2021/12/08 11:11:22;;;;;;;10.30;3.65;;;;;;;6.32;88.38;99522.22;5039057;28;20366;-77
2021/12/08 11:13:56;;;;;;;10.95;3.35;;;;;;;6.55;87.24;99526.00;5023541;28;20020;-77
2021/12/08 11:16:27;;;;;;;;;;;;;;;6.56;86.20;99532.94;5030841;28;20059;-77
2021/12/08 11:19:09;;;;;;;7.45;3.22;;;;;;;6.65;86.21;99532.19;5030797;28;19920;-77
2021/12/08 11:21:39;;;;;;;7.10;2.75;;;;;;;6.80;85.49;99536.72;5042266;28;20048;-79
2021/12/08 11:24:33;;;;;;;13.77;3.40;;;;;;;6.80;86.00;99541.06;5042716;28;20028;-78
2021/12/08 11:27:02;;;;;;;9.65;2.80;;;;;;;6.69;86.40;99538.34;5040232;28;20029;-78
2021/12/08 11:29:33;;;;;;;7.03;3.42;;;;;;;6.57;85.96;99545.16;5053044;28;20396;-77
2021/12/08 11:31:59;;;;;;;9.32;3.00;;;;;;;6.37;87.41;99544.91;5048878;28;20022;-78
2021/12/08 11:34:37;;;;;;;10.05;3.70;;;;;;;6.83;86.44;99552.41;5032929;28;20028;-77
2021/12/08 11:37:07;;;;;;;5.15;2.60;;;;;;;7.11;85.35;99555.34;5034171;28;20478;-78
2021/12/08 11:39:37;;;;;;;8.13;2.85;;;;;;;7.18;84.10;99554.53;5042264;28;20104;-77
2021/12/08 11:42:12;;;;;;;11.57;3.30;;;;;;;7.12;83.71;99543.13;5047855;28;20473;-78
2021/12/08 11:44:41;;;;;;;11.50;2.75;;;;;;;6.96;84.27;99553.44;5041984;28;20029;-78
2021/12/08 11:47:08;;;;;;;9.35;3.22;;;;;;;7.33;83.33;99552.91;5037182;28;20507;-78
2021/12/08 11:49:39;;;;;;;8.23;3.72;;;;;;;7.55;82.14;99553.97;5037851;28;20515;-78
2021/12/08 11:52:10;;;;;;;7.70;2.90;;;;;;;8.12;81.56;99563.97;5032385;28;20025;-77
2021/12/08 11:54:52;;;;;;;8.95;3.10;;;;;;;7.91;79.84;99542.88;5036114;28;20434;-78
2021/12/08 11:57:22;;;;;;;8.55;3.13;;;;;;;7.93;79.62;99537.66;5034557;28;20030;-77
2021/12/08 11:59:53;;;;;;;9.77;3.30;;;;;;;8.01;79.81;99535.09;5036684;28;20037;-76
2021/12/08 12:02:21;;;;;;;8.25;3.55;;;;;;;8.37;78.64;99526.53;5033937;28;20029;-77
2021/12/08 12:04:49;;;;;;;8.43;2.97;;;;;;;8.74;77.14;99537.16;5030297;28;20037;-79
2021/12/08 12:07:15;;;;;;;8.43;2.70;;;;;;;8.71;75.88;99521.44;5031183;28;20030;-78
2021/12/08 12:09:43;;;;;;;4.95;2.47;;;;;;;8.65;75.98;99533.66;5032610;28;20077;-77
2021/12/08 12:12:09;;;;;;;6.93;3.05;;;;;;;8.79;75.42;99529.34;5032316;28;20044;-77
2021/12/08 12:14:35;;;;;;;7.82;2.67;;;;;;;9.44;74.96;99532.00;5032998;28;20120;-77
2021/12/08 12:17:01;;;;;;;7.53;3.00;;;;;;;9.64;71.96;99520.63;5033307;28;20117;-78
2021/12/08 12:19:33;;;;;;;8.23;3.22;;;;;;;9.53;72.35;99529.38;5034562;28;20469;-76
2021/12/08 12:22:16;;;;;;;7.35;2.72;;;;;;;9.83;71.44;99532.00;5035579;28;20100;-76
2021/12/08 12:25:00;;;;;;;10.23;3.55;;;;;;;9.89;70.67;99529.34;5046285;28;20044;-77
2021/12/08 12:27:32;;;;;;;9.57;2.83;;;;;;;9.92;70.13;99534.63;5031909;28;20065;-77
2021/12/08 12:30:12;;;;;;;9.13;3.00;;;;;;;9.27;72.31;99537.28;5027220;28;20034;-77
2021/12/08 12:32:54;;;;;;;7.97;3.55;;;;;;;9.40;72.02;99548.63;5034646;28;20053;-76